Time;durP1;ratioP1;P1;durP2;ratioP2;P2;SDS_P1;SDS_P2;PMS_P1;PMS_P2;Temp;Humidity;BMP_temperature;BMP_pressure;BME280_temperature;BME280_humidity;BME280_pressure;Samples;Min_cycle;Max_cycle;Signal;HPM_P1;HPM_P2
2022/10/19 00:01:49;;;;;;;;;;;11.40;57.80;;;;;;4983999;28;19953;-87
2022/10/19 00:04:15;;;;;;;;;;;11.30;57.90;;;;;;4984441;28;19914;-90
2022/10/19 00:06:41;;;;;;;;;;;11.30;58.00;;;;;;5002308;28;19972;-90
2022/10/19 00:09:08;;;;;;;;;;;11.20;58.10;;;;;;5003392;28;19936;-90
2022/10/19 00:11:34;;;;;;;;;;;11.20;58.10;;;;;;5003415;28;19945;-90
2022/10/19 00:14:00;;;;;;;;;;;11.20;58.10;;;;;;4986119;28;21154;-90
2022/10/19 00:16:27;;;;;;;;;;;11.20;58.20;;;;;;5001920;28;20519;-91
2022/10/19 00:18:56;;;;;;;;;;;11.10;58.10;;;;;;4982746;28;19924;-92
2022/10/19 00:21:22;;;;;;;;;;;11.10;58.20;;;;;;5008003;28;19935;-91
2022/10/19 00:23:47;;;;;;;;;;;11.10;58.20;;;;;;4983901;28;19913;-90
2022/10/19 00:26:13;;;;;;;;;;;11.10;58.30;;;;;;5003330;28;19927;-90
2022/10/19 00:28:39;;;;;;;;;;;11.00;58.50;;;;;;4984794;28;20000;-87
2022/10/19 00:31:06;;;;;;;;;;;11.00;58.80;;;;;;5002117;28;19910;-91
2022/10/19 00:33:32;;;;;;;;;;;11.10;59.10;;;;;;4990640;28;19917;-86
2022/10/19 00:35:57;;;;;;;;;;;11.10;59.40;;;;;;5007834;28;19910;-90
2022/10/19 00:38:23;;;;;;;;;;;11.10;59.30;;;;;;4997250;28;19917;-89
2022/10/19 00:40:49;;;;;;;;;;;11.10;59.20;;;;;;4984551;28;19913;-90
2022/10/19 00:43:15;;;;;;;;;;;11.10;59.20;;;;;;4989662;28;19972;-90
2022/10/19 00:45:41;;;;;;;;;;;11.10;59.10;;;;;;4988261;28;19917;-87
2022/10/19 00:48:08;;;;;;;;;;;11.00;59.00;;;;;;4983288;28;19950;-90
2022/10/19 00:50:33;;;;;;;;;;;11.00;58.90;;;;;;5001464;28;19917;-90
2022/10/19 00:52:59;;;;;;;;;;;11.00;58.70;;;;;;5002511;28;19973;-89
2022/10/19 00:55:25;;;;;;;;;;;10.90;58.60;;;;;;5000550;28;19921;-90
2022/10/19 00:57:51;;;;;;;;;;;10.90;58.60;;;;;;4984605;28;20384;-87
2022/10/19 01:00:17;;;;;;;;;;;10.90;58.60;;;;;;5001769;28;19917;-90
2022/10/19 01:02:42;;;;;;;;;;;10.80;58.50;;;;;;4985020;28;19929;-87
2022/10/19 01:05:08;;;;;;;;;;;10.80;58.40;;;;;;4999988;28;20380;-87
2022/10/19 01:07:33;;;;;;;;;;;10.70;58.40;;;;;;5005818;28;20324;-89
2022/10/19 01:09:59;;;;;;;;;;;10.70;58.40;;;;;;5000388;28;19913;-89
2022/10/19 01:12:34;;;;;;;;;;;10.70;58.50;;;;;;4997965;28;19929;-90
2022/10/19 01:15:05;;;;;;;;;;;10.70;58.50;;;;;;4987099;28;20383;-90
2022/10/19 01:17:36;;;;;;;;;;;10.70;58.50;;;;;;4982315;28;19925;-90
2022/10/19 01:20:07;;;;;;;;;;;10.60;58.50;;;;;;5003887;28;19985;-90
2022/10/19 01:22:52;;;;;;;;;;;10.60;58.40;;;;;;4997482;28;20435;-91
2022/10/19 01:25:23;;;;;;;;;;;10.50;58.40;;;;;;4998921;28;19917;-91
2022/10/19 01:27:55;;;;;;;;;;;10.50;58.50;;;;;;4997251;28;19938;-91
2022/10/19 01:30:37;;;;;;;;;;;10.50;58.40;;;;;;4999911;28;20084;-88
2022/10/19 01:33:19;;;;;;;;;;;10.40;58.40;;;;;;4998608;28;19921;-90
2022/10/19 01:35:48;;;;;;;;;;;10.40;58.40;;;;;;4984705;28;19965;-91
2022/10/19 01:38:20;;;;;;;;;;;10.30;58.40;;;;;;4980018;28;19921;-90
2022/10/19 01:40:58;;;;;;;;;;;10.30;58.60;;;;;;5000653;28;19952;-87
2022/10/19 01:43:23;;;;;;;;;;;10.30;58.50;;;;;;4998003;28;20010;-89
2022/10/19 01:45:51;;;;;;;;;;;10.20;58.60;;;;;;4995495;28;19914;-91
2022/10/19 01:48:20;;;;;;;;;;;10.20;58.70;;;;;;5010254;28;19922;-89
2022/10/19 01:50:51;;;;;;;;;;;10.20;58.80;;;;;;5001542;28;19913;-87
2022/10/19 01:53:17;;;;;;;;;;;10.20;58.80;;;;;;4998648;28;20431;-90
2022/10/19 01:55:43;;;;;;;;;;;10.20;58.60;;;;;;4981227;28;19914;-90
2022/10/19 01:58:12;;;;;;;;;;;10.10;58.50;;;;;;5011691;28;19917;-90
2022/10/19 02:00:38;;;;;;;;;;;10.10;58.40;;;;;;4990414;28;20404;-91
2022/10/19 02:03:04;;;;;;;;;;;10.10;58.50;;;;;;5003381;28;19918;-90
2022/10/19 02:05:31;;;;;;;;;;;10.00;58.60;;;;;;4987089;28;19964;-87
2022/10/19 02:07:59;;;;;;;;;;;10.00;58.70;;;;;;4998580;28;19953;-90
2022/10/19 02:10:25;;;;;;;;;;;10.00;58.70;;;;;;4986745;28;19910;-90
2022/10/19 02:12:53;;;;;;;;;;;10.00;58.70;;;;;;4986847;28;19918;-89
2022/10/19 02:15:20;;;;;;;;;;;10.00;58.60;;;;;;4987214;28;19910;-86
2022/10/19 02:17:47;;;;;;;;;;;10.00;58.50;;;;;;4985223;28;19925;-87
2022/10/19 02:20:13;;;;;;;;;;;9.90;58.70;;;;;;5004746;28;20615;-87
2022/10/19 02:22:39;;;;;;;;;;;9.90;58.80;;;;;;5007577;28;19930;-87
2022/10/19 02:25:05;;;;;;;;;;;9.90;58.80;;;;;;4980056;28;20008;-89
2022/10/19 02:27:31;;;;;;;;;;;9.90;58.70;;;;;;4993872;28;19933;-87
2022/10/19 02:29:56;;;;;;;;;;;9.90;58.60;;;;;;4986867;28;19918;-90
2022/10/19 02:32:22;;;;;;;;;;;9.80;58.60;;;;;;4982266;28;19926;-90
2022/10/19 02:34:48;;;;;;;;;;;9.80;58.60;;;;;;4992044;28;19917;-89
2022/10/19 02:37:13;;;;;;;;;;;9.80;58.60;;;;;;5002439;28;19940;-89
2022/10/19 02:39:39;;;;;;;;;;;9.80;58.60;;;;;;4983312;28;19914;-89
2022/10/19 02:42:08;;;;;;;;;;;9.70;58.50;;;;;;5003182;28;19958;-86
2022/10/19 02:44:49;;;;;;;;;;;9.70;58.60;;;;;;4983763;28;19913;-87
2022/10/19 02:47:17;;;;;;;;;;;9.70;58.70;;;;;;4999896;28;20269;-89
2022/10/19 02:49:43;;;;;;;;;;;9.70;58.80;;;;;;5004497;28;19914;-88
2022/10/19 02:52:10;;;;;;;;;;;9.70;59.00;;;;;;4984043;28;20337;-89
2022/10/19 02:54:36;;;;;;;;;;;9.70;59.20;;;;;;4988509;28;19918;-90
2022/10/19 02:57:03;;;;;;;;;;;9.70;59.40;;;;;;5002624;28;19914;-89
2022/10/19 02:59:29;;;;;;;;;;;9.70;59.60;;;;;;4986240;28;19963;-89
2022/10/19 03:01:54;;;;;;;;;;;9.80;59.80;;;;;;4987110;28;19925;-88
2022/10/19 03:04:20;;;;;;;;;;;9.80;59.90;;;;;;4985271;28;19920;-90
2022/10/19 03:06:45;;;;;;;;;;;9.80;60.10;;;;;;5002607;28;20567;-90
2022/10/19 03:09:11;;;;;;;;;;;9.80;60.30;;;;;;5007734;28;19918;-87
2022/10/19 03:11:37;;;;;;;;;;;9.90;60.50;;;;;;5003944;28;19932;-89
2022/10/19 03:14:02;;;;;;;;;;;10.00;60.70;;;;;;4983667;28;19909;-90
2022/10/19 03:16:28;;;;;;;;;;;10.20;60.80;;;;;;5002284;28;19932;-88
2022/10/19 03:18:53;;;;;;;;;;;10.30;60.90;;;;;;5005427;28;19936;-89
2022/10/19 03:21:19;;;;;;;;;;;10.40;61.00;;;;;;4984451;28;19925;-89
2022/10/19 03:23:45;;;;;;;;;;;10.60;61.20;;;;;;4986455;28;19922;-90
2022/10/19 03:26:12;;;;;;;;;;;10.70;61.20;;;;;;5000129;28;20344;-86
2022/10/19 03:28:37;;;;;;;;;;;10.80;61.30;;;;;;5001039;28;19937;-86
2022/10/19 03:31:03;;;;;;;;;;;10.90;61.40;;;;;;5003870;28;19909;-88
2022/10/19 03:33:28;;;;;;;;;;;11.00;61.40;;;;;;4999832;28;19968;-88
2022/10/19 03:36:13;;;;;;;;;;;11.10;61.50;;;;;;5003908;28;19964;-87
2022/10/19 03:38:39;;;;;;;;;;;11.20;61.50;;;;;;4983397;28;19913;-88
2022/10/19 03:41:05;;;;;;;;;;;11.30;61.70;;;;;;4999637;28;19934;-90
2022/10/19 03:43:31;;;;;;;;;;;11.40;61.80;;;;;;4997776;28;20347;-90
2022/10/19 03:45:56;;;;;;;;;;;11.50;61.80;;;;;;4998026;28;19956;-89
2022/10/19 03:48:22;;;;;;;;;;;11.50;61.90;;;;;;5010381;28;20424;-89
2022/10/19 03:50:47;;;;;;;;;;;11.60;62.00;;;;;;4985105;28;20012;-86
2022/10/19 03:53:13;;;;;;;;;;;11.70;62.00;;;;;;5001490;28;19925;-89
2022/10/19 03:55:39;;;;;;;;;;;11.80;62.10;;;;;;4981896;28;19921;-85
2022/10/19 03:58:05;;;;;;;;;;;11.90;62.10;;;;;;4996654;28;19917;-87
2022/10/19 04:00:30;;;;;;;;;;;12.00;62.10;;;;;;4985560;28;19924;-89
2022/10/19 04:02:56;;;;;;;;;;;12.10;62.10;;;;;;4999175;28;19926;-89
2022/10/19 04:05:21;;;;;;;;;;;12.20;62.10;;;;;;4979887;28;19929;-86
2022/10/19 04:07:47;;;;;;;;;;;12.20;62.10;;;;;;5004082;28;19922;-89
2022/10/19 04:10:12;;;;;;;;;;;12.30;62.10;;;;;;4997995;28;20331;-86
2022/10/19 04:12:38;;;;;;;;;;;12.30;62.20;;;;;;4998702;28;19924;-89
2022/10/19 04:15:04;;;;;;;;;;;12.40;62.20;;;;;;5000898;28;19914;-89
2022/10/19 04:17:29;;;;;;;;;;;12.40;62.20;;;;;;5002026;28;19949;-89
2022/10/19 04:19:55;;;;;;;;;;;12.50;62.20;;;;;;4997571;28;19920;-90
2022/10/19 04:22:20;;;;;;;;;;;12.50;62.20;;;;;;4988904;28;19939;-89
2022/10/19 04:24:46;;;;;;;;;;;12.60;62.10;;;;;;5000288;28;19924;-87
2022/10/19 04:27:11;;;;;;;;;;;12.70;62.10;;;;;;4985468;28;19948;-87
2022/10/19 04:29:37;;;;;;;;;;;12.70;62.10;;;;;;5003204;28;19910;-87
2022/10/19 04:32:02;;;;;;;;;;;12.70;62.10;;;;;;5002450;28;19918;-87
2022/10/19 04:34:28;;;;;;;;;;;12.70;62.10;;;;;;5003001;28;20417;-89
2022/10/19 04:36:54;;;;;;;;;;;12.70;62.20;;;;;;5005033;28;19917;-90
2022/10/19 04:39:19;;;;;;;;;;;12.70;62.20;;;;;;4982999;28;20364;-88
2022/10/19 04:41:45;;;;;;;;;;;12.70;62.40;;;;;;4979666;28;19968;-89
2022/10/19 04:44:10;;;;;;;;;;;12.80;62.40;;;;;;5001976;28;19913;-90
2022/10/19 04:46:37;;;;;;;;;;;12.80;62.50;;;;;;4984593;28;19922;-89
2022/10/19 04:49:05;;;;;;;;;;;12.80;62.60;;;;;;5001667;28;19910;-88
2022/10/19 04:51:30;;;;;;;;;;;12.90;62.80;;;;;;5000783;28;19941;-89
2022/10/19 04:53:57;;;;;;;;;;;13.00;62.80;;;;;;4992042;28;20471;-90
2022/10/19 04:56:25;;;;;;;;;;;13.00;62.80;;;;;;5000510;28;20284;-88
2022/10/19 04:58:53;;;;;;;;;;;13.10;62.80;;;;;;4982569;28;20381;-86
2022/10/19 05:01:19;;;;;;;;;;;13.20;62.80;;;;;;4984709;28;19938;-89
2022/10/19 05:03:45;;;;;;;;;;;13.20;62.80;;;;;;5000242;28;20004;-86
2022/10/19 05:06:11;;;;;;;;;;;13.20;62.60;;;;;;4998474;28;20020;-88
2022/10/19 05:08:37;;;;;;;;;;;13.30;62.70;;;;;;4979555;28;19998;-88
2022/10/19 05:11:04;;;;;;;;;;;13.30;62.60;;;;;;4999227;28;20432;-89
2022/10/19 05:13:31;;;;;;;;;;;13.30;62.50;;;;;;4982593;28;19949;-89
2022/10/19 05:15:58;;;;;;;;;;;13.30;62.60;;;;;;5006278;28;20308;-87
2022/10/19 05:18:23;;;;;;;;;;;13.30;62.70;;;;;;4998119;28;19913;-90
2022/10/19 05:20:49;;;;;;;;;;;13.30;62.80;;;;;;4997048;28;19917;-89
2022/10/19 05:23:15;;;;;;;;;;;13.40;62.80;;;;;;4981330;28;19928;-89
2022/10/19 05:25:40;;;;;;;;;;;13.40;62.80;;;;;;5002455;28;19952;-87
2022/10/19 05:28:06;;;;;;;;;;;13.50;62.70;;;;;;4996358;28;19926;-91
2022/10/19 05:30:31;;;;;;;;;;;13.50;62.80;;;;;;4998856;28;20444;-90
2022/10/19 05:32:57;;;;;;;;;;;13.60;62.80;;;;;;4978632;28;20394;-90
2022/10/19 05:35:22;;;;;;;;;;;13.60;62.80;;;;;;5001199;28;19941;-88
2022/10/19 05:37:52;;;;;;;;;;;13.70;62.80;;;;;;5003612;28;19927;-89
2022/10/19 05:40:18;;;;;;;;;;;13.70;62.80;;;;;;5002794;28;19909;-90
2022/10/19 05:42:43;;;;;;;;;;;13.80;62.80;;;;;;4984945;28;19926;-90
2022/10/19 05:45:09;;;;;;;;;;;13.80;62.80;;;;;;4985069;28;19914;-89
2022/10/19 05:47:34;;;;;;;;;;;13.80;62.60;;;;;;5005738;28;19932;-88
2022/10/19 05:50:00;;;;;;;;;;;13.80;62.60;;;;;;5005364;28;20357;-88
2022/10/19 05:52:26;;;;;;;;;;;13.90;62.60;;;;;;4985494;28;20541;-85
2022/10/19 05:54:52;;;;;;;;;;;13.80;62.50;;;;;;5003221;28;20281;-88
2022/10/19 05:57:18;;;;;;;;;;;13.80;62.40;;;;;;4986658;28;20368;-86
2022/10/19 05:59:43;;;;;;;;;;;13.80;62.40;;;;;;5004008;28;19964;-86
2022/10/19 06:02:12;;;;;;;;;;;13.80;62.50;;;;;;4984310;28;19948;-89
2022/10/19 06:04:37;;;;;;;;;;;13.80;62.50;;;;;;5004810;28;20368;-89
2022/10/19 06:07:03;;;;;;;;;;;13.80;62.50;;;;;;5004394;28;19922;-89
2022/10/19 06:09:34;;;;;;;;;;;13.80;62.60;;;;;;4986412;28;19958;-88
2022/10/19 06:12:00;;;;;;;;;;;13.80;62.70;;;;;;4999033;28;19929;-89
2022/10/19 06:14:26;;;;;;;;;;;13.80;62.70;;;;;;4999267;28;20722;-90
2022/10/19 06:16:51;;;;;;;;;;;13.90;62.70;;;;;;4981906;28;19921;-90
2022/10/19 06:19:17;;;;;;;;;;;13.90;62.80;;;;;;4984193;28;19914;-90
2022/10/19 06:21:43;;;;;;;;;;;13.90;62.80;;;;;;4978116;28;19930;-89
2022/10/19 06:24:09;;;;;;;;;;;14.00;62.80;;;;;;4996662;28;19918;-87
2022/10/19 06:26:35;;;;;;;;;;;14.00;62.80;;;;;;5000000;28;19925;-89
2022/10/19 06:29:00;;;;;;;;;;;14.00;62.90;;;;;;5003860;28;19914;-86
2022/10/19 06:31:27;;;;;;;;;;;14.10;63.00;;;;;;4981644;28;19945;-89
2022/10/19 06:33:52;;;;;;;;;;;14.20;63.00;;;;;;4970670;28;19918;-88
2022/10/19 06:36:19;;;;;;;;;;;14.20;63.10;;;;;;4981129;28;19924;-87
2022/10/19 06:38:45;;;;;;;;;;;14.30;63.20;;;;;;4980377;28;19960;-86
2022/10/19 06:41:11;;;;;;;;;;;14.30;63.20;;;;;;4995386;28;20369;-89
2022/10/19 06:43:36;;;;;;;;;;;14.40;63.20;;;;;;4996536;28;21679;-86
2022/10/19 06:46:03;;;;;;;;;;;14.50;63.30;;;;;;4995086;28;19932;-89
2022/10/19 06:48:29;;;;;;;;;;;14.60;63.30;;;;;;4998272;28;19940;-88
2022/10/19 06:50:55;;;;;;;;;;;14.70;63.30;;;;;;4999053;28;19921;-89
2022/10/19 06:53:21;;;;;;;;;;;14.70;63.50;;;;;;4997208;28;20033;-90
2022/10/19 06:55:47;;;;;;;;;;;14.80;63.40;;;;;;5000373;28;20009;-90
2022/10/19 06:58:12;;;;;;;;;;;14.80;63.20;;;;;;4990694;28;19957;-90
2022/10/19 07:00:38;;;;;;;;;;;14.90;63.40;;;;;;4994678;28;19928;-90
2022/10/19 07:03:03;;;;;;;;;;;15.00;63.60;;;;;;4993926;28;20280;-88
2022/10/19 07:05:29;;;;;;;;;;;15.10;63.70;;;;;;4996874;28;19913;-89
2022/10/19 07:07:56;;;;;;;;;;;15.20;63.70;;;;;;5002466;28;19949;-86
2022/10/19 07:10:21;;;;;;;;;;;15.30;63.80;;;;;;4977798;28;20340;-89
2022/10/19 07:12:47;;;;;;;;;;;15.40;63.80;;;;;;4992727;28;19922;-89
2022/10/19 07:15:13;;;;;;;;;;;15.40;63.90;;;;;;4996205;28;19959;-88
2022/10/19 07:17:38;;;;;;;;;;;15.60;63.80;;;;;;4994700;28;19968;-90
2022/10/19 07:20:04;;;;;;;;;;;15.60;63.90;;;;;;4997556;28;20349;-89
2022/10/19 07:22:30;;;;;;;;;;;15.70;63.90;;;;;;4997321;28;20726;-88
2022/10/19 07:24:57;;;;;;;;;;;15.80;63.90;;;;;;4994787;28;19926;-88
2022/10/19 07:27:22;;;;;;;;;;;15.90;63.80;;;;;;4998215;28;19929;-86
2022/10/19 07:29:48;;;;;;;;;;;16.00;63.90;;;;;;4997732;28;19945;-89
2022/10/19 07:32:13;;;;;;;;;;;16.00;63.90;;;;;;4999002;28;19924;-88
2022/10/19 07:34:39;;;;;;;;;;;16.10;64.10;;;;;;4993870;28;19921;-89
2022/10/19 07:37:04;;;;;;;;;;;16.30;64.30;;;;;;4983616;28;19993;-89
2022/10/19 07:39:30;;;;;;;;;;;16.40;64.40;;;;;;4971494;28;19921;-89
2022/10/19 07:41:55;;;;;;;;;;;16.50;64.50;;;;;;4990249;28;19992;-92
2022/10/19 07:44:21;;;;;;;;;;;16.70;64.70;;;;;;4992016;28;19918;-91
2022/10/19 07:46:47;;;;;;;;;;;16.90;64.80;;;;;;4989610;28;20361;-87
2022/10/19 07:49:15;;;;;;;;;;;17.00;64.60;;;;;;4986379;28;19953;-88
2022/10/19 07:51:46;;;;;;;;;;;17.20;64.60;;;;;;4968800;28;19945;-89
2022/10/19 07:54:12;;;;;;;;;;;17.30;64.80;;;;;;4959972;28;19933;-86
2022/10/19 07:56:38;;;;;;;;;;;17.50;65.10;;;;;;4954387;28;19926;-89
2022/10/19 07:59:04;;;;;;;;;;;17.80;65.40;;;;;;4970333;28;19929;-88
2022/10/19 08:01:31;;;;;;;;;;;17.90;65.30;;;;;;4989215;28;20447;-88
2022/10/19 08:03:57;;;;;;;;;;;18.20;65.10;;;;;;4989419;28;20013;-88
2022/10/19 08:06:23;;;;;;;;;;;18.30;64.70;;;;;;4988692;28;20439;-89
2022/10/19 08:08:49;;;;;;;;;;;18.40;64.80;;;;;;4972177;28;19914;-87
2022/10/19 08:11:19;;;;;;;;;;;18.50;64.90;;;;;;4989865;28;20411;-89
2022/10/19 08:13:45;;;;;;;;;;;18.70;64.90;;;;;;4988911;28;19914;-88
2022/10/19 08:16:25;;;;;;;;;;;18.80;64.70;;;;;;4969768;28;19933;-86
2022/10/19 08:18:54;;;;;;;;;;;18.90;64.40;;;;;;4970914;28;20359;-89
2022/10/19 08:21:20;;;;;;;;;;;19.10;64.50;;;;;;4988644;28;20285;-88
2022/10/19 08:23:45;;;;;;;;;;;19.20;64.60;;;;;;4971028;28;19914;-89
2022/10/19 08:26:11;;;;;;;;;;;19.30;64.60;;;;;;4992646;28;20036;-89
2022/10/19 08:28:37;;;;;;;;;;;19.40;64.40;;;;;;4974049;28;20596;-89
2022/10/19 08:31:16;;;;;;;;;;;19.70;63.80;;;;;;4970842;28;20408;-86
2022/10/19 08:34:20;;;;;;;;;;;19.80;63.80;;;;;;4970817;28;20033;-87
2022/10/19 08:36:48;;;;;;;;;;;19.90;64.20;;;;;;4983277;28;19984;-89
2022/10/19 08:57:04;;;;;;;;;;;21.00;63.20;;;;;;5003878;28;19937;-90
2022/10/19 09:00:04;;;;;;;;;;;21.20;63.30;;;;;;4992112;28;19969;-89
2022/10/19 09:05:37;;;;;;;;;;;21.50;61.80;;;;;;4989354;28;20030;-90
2022/10/19 09:08:07;;;;;;;;;;;21.70;61.80;;;;;;5004290;28;20361;-89
2022/10/19 09:10:34;;;;;;;;;;;21.70;61.30;;;;;;4987660;28;19945;-90
2022/10/19 09:19:24;;;;;;;;;;;21.90;60.60;;;;;;4892419;29;20345;-90
2022/10/19 09:22:27;;;;;;;;;;;;;;;;;;;;;
2022/10/19 09:24:58;;;;;;;;;;;22.20;60.00;;;;;;4946813;28;19941;-88
2022/10/19 09:27:29;;;;;;;;;;;22.30;58.90;;;;;;4961053;28;20391;-90
2022/10/19 09:29:56;;;;;;;;;;;22.30;58.90;;;;;;4986727;28;19918;-89
2022/10/19 09:32:34;;;;;;;;;;;22.40;58.60;;;;;;4970283;28;20332;-87
2022/10/19 09:35:20;;;;;;;;;;;22.40;59.10;;;;;;4987984;28;20329;-89
2022/10/19 09:37:47;;;;;;;;;;;22.50;57.40;;;;;;4972054;28;19925;-90
2022/10/19 09:40:16;;;;;;;;;;;22.60;57.30;;;;;;4989745;28;20285;-91
2022/10/19 09:42:42;;;;;;;;;;;22.70;56.90;;;;;;4972581;28;19926;-90
2022/10/19 09:45:18;;;;;;;;;;;22.70;56.30;;;;;;4966572;28;21389;-90
2022/10/19 09:47:46;;;;;;;;;;;22.70;54.30;;;;;;4969565;28;20211;-90
2022/10/19 09:50:19;;;;;;;;;;;22.60;54.30;;;;;;4970498;28;19922;-87
2022/10/19 09:52:46;;;;;;;;;;;22.70;53.80;;;;;;4988428;28;20268;-90
2022/10/19 09:55:19;;;;;;;;;;;22.80;53.30;;;;;;4966252;28;19956;-90
2022/10/19 09:57:46;;;;;;;;;;;23.20;54.10;;;;;;4989707;28;20291;-88
2022/10/19 10:00:19;;;;;;;;;;;23.40;53.90;;;;;;4985277;28;19914;-90
2022/10/19 10:02:49;;;;;;;;;;;23.70;51.80;;;;;;4994982;28;19937;-90
2022/10/19 10:05:15;;;;;;;;;;;23.70;50.70;;;;;;4966918;28;19921;-87
2022/10/19 10:07:43;;;;;;;;;;;23.50;48.80;;;;;;4986727;28;19921;-87
2022/10/19 10:10:31;;;;;;;;;;;23.30;49.30;;;;;;4970959;28;20377;-88
2022/10/19 10:12:57;;;;;;;;;;;23.40;49.30;;;;;;4987417;28;19925;-89
2022/10/19 10:15:27;;;;;;;;;;;23.30;48.00;;;;;;4969046;28;20006;-86
2022/10/19 10:17:54;;;;;;;;;;;23.20;49.10;;;;;;4990357;28;19921;-89
2022/10/19 10:20:23;;;;;;;;;;;23.30;49.70;;;;;;4991087;28;20397;-90
2022/10/19 10:23:01;;;;;;;;;;;23.20;48.90;;;;;;4990278;28;20297;-90
2022/10/19 10:25:33;;;;;;;;;;;23.20;47.70;;;;;;4969974;28;20012;-90
2022/10/19 10:28:00;;;;;;;;;;;23.00;46.10;;;;;;4991461;28;19913;-89
2022/10/19 10:30:29;;;;;;;;;;;22.90;47.30;;;;;;5000395;28;19933;-91
2022/10/19 10:32:55;;;;;;;;;;;22.90;47.50;;;;;;4992762;28;19913;-90
2022/10/19 10:35:28;;;;;;;;;;;22.90;49.10;;;;;;4986230;28;19944;-92
2022/10/19 10:38:02;;;;;;;;;;;23.00;49.50;;;;;;4991103;28;19914;-90
2022/10/19 10:40:30;;;;;;;;;;;23.00;48.50;;;;;;4991417;28;19968;-87
2022/10/19 10:43:00;;;;;;;;;;;23.00;48.20;;;;;;4990551;28;20385;-92
2022/10/19 10:45:38;;;;;;;;;;;22.90;45.80;;;;;;4988581;28;20427;-91
2022/10/19 10:48:27;;;;;;;;;;;22.80;44.70;;;;;;4992445;28;20446;-89
2022/10/19 10:50:52;;;;;;;;;;;22.70;43.90;;;;;;4984751;28;19914;-86
2022/10/19 10:53:36;;;;;;;;;;;22.60;44.60;;;;;;4991362;28;19922;-88
2022/10/19 10:56:03;;;;;;;;;;;22.50;44.80;;;;;;4991184;28;19917;-90
2022/10/19 10:58:42;;;;;;;;;;;22.50;44.40;;;;;;4974925;28;19968;-89
2022/10/19 11:01:14;;;;;;;;;;;22.50;44.90;;;;;;4976236;28;20405;-90
2022/10/19 11:03:43;;;;;;;;;;;22.40;45.60;;;;;;4991039;28;19989;-89
2022/10/19 11:06:08;;;;;;;;;;;22.40;44.10;;;;;;4993686;28;19917;-88
2022/10/19 11:08:46;;;;;;;;;;;22.30;44.40;;;;;;4990828;28;20017;-86
2022/10/19 11:11:24;;;;;;;;;;;22.30;44.30;;;;;;4974449;28;19945;-90
2022/10/19 11:14:08;;;;;;;;;;;22.30;44.40;;;;;;4991472;28;19964;-89
2022/10/19 11:16:39;;;;;;;;;;;22.30;45.40;;;;;;4990832;28;19961;-91
2022/10/19 11:19:10;;;;;;;;;;;22.30;44.80;;;;;;4991042;28;19942;-90
2022/10/19 11:21:42;;;;;;;;;;;22.40;44.10;;;;;;5009626;28;19932;-91
2022/10/19 11:24:10;;;;;;;;;;;22.40;43.50;;;;;;4996017;28;20399;-91
2022/10/19 11:26:56;;;;;;;;;;;22.30;43.00;;;;;;4991853;28;20377;-88
2022/10/19 11:29:46;;;;;;;;;;;22.30;43.90;;;;;;4988919;28;19918;-91
2022/10/19 11:32:19;;;;;;;;;;;22.40;43.60;;;;;;4973667;28;20012;-91
2022/10/19 11:34:54;;;;;;;;;;;22.30;41.20;;;;;;4972149;28;19918;-89
2022/10/19 11:37:42;;;;;;;;;;;22.30;41.40;;;;;;4991695;28;19918;-88
2022/10/19 11:40:07;;;;;;;;;;;22.30;40.50;;;;;;4992302;28;19957;-88
2022/10/19 11:42:37;;;;;;;;;;;22.20;41.00;;;;;;4993806;28;19968;-89
2022/10/19 11:45:22;;;;;;;;;;;22.20;40.70;;;;;;4973322;28;20590;-87
2022/10/19 11:48:01;;;;;;;;;;;22.30;41.50;;;;;;4973738;28;20556;-88
2022/10/19 11:50:32;;;;;;;;;;;22.40;40.90;;;;;;4993501;28;20427;-86
2022/10/19 11:52:57;;;;;;;;;;;22.30;40.30;;;;;;4974330;28;19953;-91
2022/10/19 11:55:44;;;;;;;;;;;22.20;39.60;;;;;;4991070;28;19973;-87
2022/10/19 11:58:25;;;;;;;;;;;21.90;39.50;;;;;;4987700;28;19921;-89
2022/10/19 12:01:11;;;;;;;;;;;21.80;40.20;;;;;;4992420;28;19989;-90
2022/10/19 12:03:46;;;;;;;;;;;21.80;39.70;;;;;;5001326;28;20396;-91
2022/10/19 12:06:12;;;;;;;;;;;21.60;40.00;;;;;;5005997;28;19917;-86
2022/10/19 12:08:55;;;;;;;;;;;21.50;39.80;;;;;;4990632;28;19917;-90
2022/10/19 12:11:32;;;;;;;;;;;21.40;40.40;;;;;;4992646;28;19991;-87
2022/10/19 12:14:00;;;;;;;;;;;21.60;41.20;;;;;;4990227;28;20361;-87
2022/10/19 12:16:48;;;;;;;;;;;22.00;40.80;;;;;;4985982;28;20789;-88
2022/10/19 12:19:17;;;;;;;;;;;22.10;39.50;;;;;;4991276;28;19918;-90
2022/10/19 12:21:43;;;;;;;;;;;21.90;39.20;;;;;;4992989;28;19918;-88
2022/10/19 12:24:28;;;;;;;;;;;21.80;39.40;;;;;;4992388;28;19913;-87
2022/10/19 12:26:53;;;;;;;;;;;21.70;39.40;;;;;;4984923;28;19914;-92
2022/10/19 12:29:30;;;;;;;;;;;21.60;39.50;;;;;;4988070;28;19990;-86
2022/10/19 12:31:56;;;;;;;;;;;21.50;39.50;;;;;;4988844;28;19918;-87
2022/10/19 12:34:40;;;;;;;;;;;21.40;39.80;;;;;;4989723;28;19918;-90
2022/10/19 12:37:18;;;;;;;;;;;21.40;39.90;;;;;;4986859;28;19918;-92
2022/10/19 12:40:02;;;;;;;;;;;21.30;39.50;;;;;;4988440;28;19918;-91
2022/10/19 12:42:30;;;;;;;;;;;21.20;40.20;;;;;;4990022;28;19925;-86
2022/10/19 12:45:15;;;;;;;;;;;21.20;40.80;;;;;;4985464;28;20696;-91
2022/10/19 12:48:01;;;;;;;;;;;21.10;40.70;;;;;;5003323;28;19920;-90
2022/10/19 12:50:52;;;;;;;;;;;21.10;40.80;;;;;;4969395;28;19922;-89
2022/10/19 12:53:31;;;;;;;;;;;21.00;40.90;;;;;;4987569;28;19918;-92
2022/10/19 12:56:08;;;;;;;;;;;20.80;40.90;;;;;;4990230;28;19925;-86
2022/10/19 12:58:38;;;;;;;;;;;20.80;40.80;;;;;;5008647;28;20404;-87
2022/10/19 13:01:05;;;;;;;;;;;20.80;41.10;;;;;;5008739;28;19971;-89
2022/10/19 13:03:40;;;;;;;;;;;20.80;40.90;;;;;;5010085;28;19960;-86
2022/10/19 13:06:18;;;;;;;;;;;20.70;40.10;;;;;;4993143;28;19987;-88
2022/10/19 13:08:47;;;;;;;;;;;20.60;40.40;;;;;;4979169;28;20433;-86
2022/10/19 13:11:14;;;;;;;;;;;20.50;40.60;;;;;;4989009;28;20292;-89
2022/10/19 13:13:50;;;;;;;;;;;20.40;41.40;;;;;;4990549;28;20769;-88
2022/10/19 13:16:27;;;;;;;;;;;20.50;41.90;;;;;;4990035;28;19933;-92
2022/10/19 13:19:11;;;;;;;;;;;20.60;42.40;;;;;;4990145;28;19914;-91
2022/10/19 13:21:56;;;;;;;;;;;20.80;42.20;;;;;;4972084;28;19976;-87
2022/10/19 13:24:25;;;;;;;;;;;20.90;41.30;;;;;;4972133;28;20551;-92
2022/10/19 13:27:02;;;;;;;;;;;20.80;40.90;;;;;;5007364;28;19953;-88
2022/10/19 13:29:37;;;;;;;;;;;20.70;40.60;;;;;;5006057;28;20418;-90
2022/10/19 13:32:22;;;;;;;;;;;20.70;40.80;;;;;;4970836;28;19913;-88
2022/10/19 13:34:48;;;;;;;;;;;20.50;40.40;;;;;;4995421;28;20375;-89
2022/10/19 13:37:15;;;;;;;;;;;20.30;40.90;;;;;;4990100;28;19917;-90
2022/10/19 13:39:41;;;;;;;;;;;20.30;41.20;;;;;;4994708;28;19922;-89
2022/10/19 13:42:21;;;;;;;;;;;20.20;41.30;;;;;;4990171;28;19926;-90
2022/10/19 13:44:47;;;;;;;;;;;20.10;41.60;;;;;;4987898;28;20009;-87
2022/10/19 13:47:31;;;;;;;;;;;20.00;41.20;;;;;;4989863;28;20030;-89
2022/10/19 13:49:59;;;;;;;;;;;19.90;41.50;;;;;;4971039;28;20076;-87
2022/10/19 13:52:45;;;;;;;;;;;19.90;41.40;;;;;;5008498;28;20218;-88
2022/10/19 13:55:27;;;;;;;;;;;20.00;41.20;;;;;;4982852;28;19925;-88
2022/10/19 13:58:02;;;;;;;;;;;19.90;41.40;;;;;;4976199;28;19967;-87
2022/10/19 14:00:53;;;;;;;;;;;19.90;41.30;;;;;;4996163;28;19921;-89
2022/10/19 14:03:38;;;;;;;;;;;19.90;42.00;;;;;;4962135;28;19922;-86
2022/10/19 14:06:22;;;;;;;;;;;19.80;42.10;;;;;;4974338;28;19922;-86
2022/10/19 14:09:08;;;;;;;;;;;19.70;41.90;;;;;;4974354;28;19968;-90
2022/10/19 14:11:35;;;;;;;;;;;19.60;42.40;;;;;;4974933;28;20396;-93
2022/10/19 14:14:10;;;;;;;;;;;19.60;42.90;;;;;;4983132;28;19922;-91
2022/10/19 14:16:54;;;;;;;;;;;19.60;42.90;;;;;;4994278;28;19913;-89
2022/10/19 14:19:25;;;;;;;;;;;19.50;42.50;;;;;;4994039;28;20499;-89
2022/10/19 14:21:51;;;;;;;;;;;19.40;42.80;;;;;;4974239;28;19922;-90
2022/10/19 14:24:26;;;;;;;;;;;19.40;42.70;;;;;;4979322;28;19929;-88
2022/10/19 14:26:51;;;;;;;;;;;19.30;42.60;;;;;;4993802;28;19917;-89
2022/10/19 14:29:17;;;;;;;;;;;19.30;42.70;;;;;;4984785;28;19932;-87
2022/10/19 14:31:45;;;;;;;;;;;19.30;43.00;;;;;;4996315;28;20012;-91
2022/10/19 14:34:15;;;;;;;;;;;19.20;43.00;;;;;;4977682;28;19921;-90
2022/10/19 14:36:47;;;;;;;;;;;19.20;42.90;;;;;;4993314;28;19976;-90
2022/10/19 14:39:41;;;;;;;;;;;19.10;43.10;;;;;;4994372;28;20484;-91
2022/10/19 14:42:10;;;;;;;;;;;19.00;43.40;;;;;;4983807;28;20347;-90
2022/10/19 14:44:42;;;;;;;;;;;19.00;43.60;;;;;;4997977;28;19918;-88
2022/10/19 14:47:17;;;;;;;;;;;19.00;43.80;;;;;;4991481;28;20452;-89
2022/10/19 14:49:43;;;;;;;;;;;19.00;44.10;;;;;;4994145;28;20376;-88
2022/10/19 14:52:10;;;;;;;;;;;18.90;44.00;;;;;;5011559;28;19968;-90
2022/10/19 14:54:40;;;;;;;;;;;18.90;43.90;;;;;;5005338;28;19937;-91
2022/10/19 14:57:07;;;;;;;;;;;18.80;43.90;;;;;;4996285;28;19925;-92
2022/10/19 14:59:34;;;;;;;;;;;18.80;44.10;;;;;;4975618;28;19921;-87
2022/10/19 15:02:02;;;;;;;;;;;18.80;44.30;;;;;;4974064;28;20583;-86